Time;durP1;ratioP1;P1;durP2;ratioP2;P2;SDS_P1;SDS_P2;PMS_P1;PMS_P2;Temp;Humidity;BMP_temperature;BMP_pressure;BME280_temperature;BME280_humidity;BME280_pressure;Samples;Min_cycle;Max_cycle;Signal;HPM_P1;HPM_P2
2022/09/09 08:51:01;;;;;;;3.03;2.20;;;;;;;;;;2992155;28;22065;-62
2022/09/09 08:53:37;;;;;;;4.97;2.60;;;;;;;;;;4991146;28;21072;-60
2022/09/09 08:56:12;;;;;;;4.40;2.20;;;;;;;;;;4999579;28;21833;-60
2022/09/09 08:58:47;;;;;;;2.87;2.20;;;;;;;;;;4983908;28;20202;-62
2022/09/09 09:01:21;;;;;;;3.23;2.27;;;;;;;;;;4981506;28;21623;-63
2022/09/09 09:04:02;;;;;;;4.23;2.60;;;;;;;;;;4984902;28;20258;-62
2022/09/09 09:06:39;;;;;;;3.70;2.53;;;;;;;;;;4983514;28;20282;-61
2022/09/09 09:09:08;;;;;;;4.17;2.60;;;;;;;;;;4984346;28;20223;-61
2022/09/09 09:11:40;;;;;;;4.10;2.60;;;;;;;;;;4965543;28;20215;-61
2022/09/09 09:14:12;;;;;;;3.20;2.57;;;;;;;;;;4987571;28;20204;-60
2022/09/09 09:16:51;;;;;;;3.20;2.40;;;;;;;;;;4982656;28;20220;-61
2022/09/09 09:19:18;;;;;;;3.40;2.20;;;;;;;;;;4984054;28;20200;-62
2022/09/09 09:21:52;;;;;;;3.10;2.10;;;;;;;;;;4990735;28;20344;-61
2022/09/09 09:24:20;;;;;;;3.50;2.40;;;;;;;;;;5001770;28;20967;-61
2022/09/09 09:26:49;;;;;;;3.60;2.47;;;;;;;;;;4976731;28;20193;-59
2022/09/09 09:29:18;;;;;;;4.50;2.23;;;;;;;;;;4984213;28;20228;-60
2022/09/09 09:31:47;;;;;;;3.23;2.40;;;;;;;;;;4984340;28;20242;-62
2022/09/09 09:34:14;;;;;;;4.73;2.77;;;;;;;;;;5001349;28;20314;-60
2022/09/09 09:36:42;;;;;;;4.83;2.90;;;;;;;;;;5001466;28;20508;-60
2022/09/09 09:39:21;;;;;;;3.93;2.50;;;;;;;;;;4999907;28;20207;-61
2022/09/09 09:42:14;;;;;;;3.23;2.77;;;;;;;;;;4984833;28;20224;-60
2022/09/09 09:44:47;;;;;;;5.07;3.67;;;;;;;;;;4982707;28;20266;-61
2022/09/09 09:47:18;;;;;;;5.03;3.73;;;;;;;;;;4980261;28;20247;-60
2022/09/09 09:49:59;;;;;;;3.73;3.13;;;;;;;;;;5000535;28;20226;-62
2022/09/09 09:52:29;;;;;;;6.47;3.60;;;;;;;;;;4981031;28;20232;-59
2022/09/09 09:54:59;;;;;;;5.20;3.63;;;;;;;;;;4984663;28;20196;-61
2022/09/09 09:57:32;;;;;;;3.90;3.30;;;;;;;;;;5001669;28;20188;-60
2022/09/09 10:00:07;;;;;;;4.13;3.17;;;;;;;;;;4984832;28;20235;-60
2022/09/09 10:02:54;;;;;;;4.90;3.20;;;;;;;;;;4952247;28;20245;-60
2022/09/09 10:05:28;;;;;;;6.27;3.20;;;;;;;;;;4905493;28;20301;-59
2022/09/09 10:08:12;;;;;;;3.47;3.13;;;;;;;;;;4925310;29;20557;-60
2022/09/09 10:10:42;;;;;;;6.67;3.47;;;;;;;;;;4942117;28;20218;-60
2022/09/09 10:13:17;;;;;;;6.47;3.90;;;;;;;;;;4928311;29;20234;-62
2022/09/09 10:15:51;;;;;;;5.57;3.80;;;;;;;;;;4946453;28;20213;-61
2022/09/09 10:18:35;;;;;;;7.37;4.20;;;;;;;;;;4945217;29;20217;-60
2022/09/09 10:21:16;;;;;;;5.87;4.40;;;;;;;;;;4944684;28;20736;-62
2022/09/09 10:23:58;;;;;;;6.33;4.30;;;;;;;;;;4944493;29;20209;-63
2022/09/09 10:26:25;;;;;;;5.87;4.67;;;;;;;;;;4941953;28;20202;-60
2022/09/09 10:28:54;;;;;;;7.53;4.03;;;;;;;;;;4945011;28;20245;-61
2022/09/09 10:31:24;;;;;;;6.00;4.13;;;;;;;;;;4944286;29;20686;-60
2022/09/09 10:34:18;;;;;;;4.67;4.10;;;;;;;;;;4929287;28;20206;-60
2022/09/09 10:36:46;;;;;;;9.43;5.00;;;;;;;;;;4906766;28;20788;-60
2022/09/09 10:39:18;;;;;;;6.40;4.10;;;;;;;;;;4928178;29;20210;-62
2022/09/09 10:41:46;;;;;;;7.70;4.30;;;;;;;;;;5002865;28;20204;-62
2022/09/09 10:44:22;;;;;;;5.93;4.30;;;;;;;;;;5004381;28;20184;-60
2022/09/09 10:47:09;;;;;;;6.57;4.50;;;;;;;;;;5000392;28;20270;-60
2022/09/09 10:49:55;;;;;;;6.63;5.97;;;;;;;;;;5005081;28;20208;-60
2022/09/09 10:52:28;;;;;;;12.27;8.93;;;;;;;;;;5003286;28;20232;-61
2022/09/09 10:55:15;;;;;;;6.77;5.40;;;;;;;;;;5003473;28;20666;-60
2022/09/09 10:57:41;;;;;;;13.40;9.93;;;;;;;;;;5001114;28;20666;-60
2022/09/09 11:00:31;;;;;;;9.57;5.97;;;;;;;;;;5003675;28;20215;-61
2022/09/09 11:03:00;;;;;;;5.70;4.83;;;;;;;;;;4980290;28;20211;-60
2022/09/09 11:05:28;;;;;;;7.87;6.40;;;;;;;;;;4985661;28;20232;-60
2022/09/09 11:08:02;;;;;;;8.87;6.57;;;;;;;;;;5003833;28;20203;-60
2022/09/09 11:10:34;;;;;;;10.03;6.77;;;;;;;;;;5002922;28;20296;-60
2022/09/09 11:13:03;;;;;;;7.57;5.83;;;;;;;;;;5003192;28;20208;-59
2022/09/09 11:15:41;;;;;;;10.10;5.90;;;;;;;;;;5001923;28;20291;-59
2022/09/09 11:18:11;;;;;;;10.03;7.27;;;;;;;;;;5004136;28;20223;-61
2022/09/09 11:20:38;;;;;;;11.50;9.53;;;;;;;;;;5002090;28;20600;-60
2022/09/09 11:23:10;;;;;;;18.40;14.10;;;;;;;;;;5003749;28;20220;-59
2022/09/09 11:25:41;;;;;;;14.07;11.07;;;;;;;;;;5003470;28;20675;-61
2022/09/09 11:28:22;;;;;;;8.90;7.17;;;;;;;;;;5003198;28;20227;-59
2022/09/09 11:30:49;;;;;;;13.00;6.60;;;;;;;;;;5003753;28;20757;-60
2022/09/09 11:33:29;;;;;;;7.00;5.47;;;;;;;;;;5003022;28;20192;-60
2022/09/09 11:36:02;;;;;;;7.67;5.90;;;;;;;;;;5001785;28;20865;-60
2022/09/09 11:38:51;;;;;;;7.13;5.77;;;;;;;;;;4985739;28;20188;-61
2022/09/09 11:41:18;;;;;;;8.93;6.20;;;;;;;;;;5002934;28;20196;-61
2022/09/09 11:43:53;;;;;;;8.00;5.70;;;;;;;;;;5002003;28;20540;-61
2022/09/09 11:46:21;;;;;;;6.27;5.60;;;;;;;;;;5003385;28;20285;-61
2022/09/09 11:49:00;;;;;;;7.33;5.70;;;;;;;;;;5002337;28;20184;-61
2022/09/09 11:51:28;;;;;;;5.90;5.30;;;;;;;;;;5002440;28;20235;-62
2022/09/09 11:54:18;;;;;;;7.10;4.90;;;;;;;;;;5002238;28;20192;-61
2022/09/09 11:56:45;;;;;;;6.77;5.00;;;;;;;;;;4995904;28;20266;-60
2022/09/09 11:59:28;;;;;;;7.33;5.30;;;;;;;;;;5003465;28;20254;-61
2022/09/09 12:02:01;;;;;;;6.00;5.00;;;;;;;;;;5003067;28;20225;-60
2022/09/09 12:04:30;;;;;;;8.67;6.30;;;;;;;;;;5003188;28;20266;-61
2022/09/09 12:07:00;;;;;;;7.77;6.13;;;;;;;;;;4999925;28;20826;-60
2022/09/09 12:09:31;;;;;;;8.83;6.30;;;;;;;;;;5002864;28;20192;-62
2022/09/09 12:12:11;;;;;;;5.90;5.30;;;;;;;;;;5000998;28;20188;-61
2022/09/09 12:14:39;;;;;;;6.47;5.63;;;;;;;;;;5004888;28;20710;-62
2022/09/09 12:17:09;;;;;;;7.20;5.57;;;;;;;;;;5002968;28;20588;-61
2022/09/09 12:19:36;;;;;;;6.03;5.33;;;;;;;;;;5001155;28;20287;-62
2022/09/09 12:22:41;;;;;;;7.10;5.60;;;;;;;;;;5003710;28;20192;-60
2022/09/09 12:25:26;;;;;;;7.23;6.20;;;;;;;;;;4943465;28;20896;-60
2022/09/09 12:28:09;;;;;;;7.73;6.20;;;;;;;;;;4925425;29;20280;-60
2022/09/09 12:30:56;;;;;;;8.53;6.87;;;;;;;;;;4966724;28;20232;-60
2022/09/09 12:33:24;;;;;;;8.63;6.93;;;;;;;;;;4984121;28;20200;-59
2022/09/09 12:35:53;;;;;;;9.13;6.53;;;;;;;;;;5000223;28;20556;-60
2022/09/09 12:38:34;;;;;;;7.07;6.07;;;;;;;;;;5002669;28;20610;-60
2022/09/09 12:41:00;;;;;;;7.00;6.20;;;;;;;;;;5003758;28;20195;-61
2022/09/09 12:43:27;;;;;;;6.93;6.23;;;;;;;;;;5002316;28;20207;-60
2022/09/09 12:46:00;;;;;;;7.30;6.23;;;;;;;;;;5004868;28;20231;-59
2022/09/09 12:48:45;;;;;;;7.00;6.30;;;;;;;;;;5002262;28;20196;-60
2022/09/09 12:51:19;;;;;;;6.13;5.53;;;;;;;;;;5002300;28;20305;-59
2022/09/09 12:53:46;;;;;;;7.13;5.80;;;;;;;;;;4982990;28;20266;-62
2022/09/09 12:56:20;;;;;;;6.83;5.30;;;;;;;;;;5000043;28;20235;-59
2022/09/09 12:58:47;;;;;;;6.40;5.50;;;;;;;;;;5001542;28;20191;-60
2022/09/09 13:01:18;;;;;;;6.20;5.40;;;;;;;;;;5000354;28;20880;-59
2022/09/09 13:03:47;;;;;;;6.87;5.80;;;;;;;;;;5000727;28;20218;-59
2022/09/09 13:06:18;;;;;;;7.10;5.90;;;;;;;;;;5001065;28;20668;-60
2022/09/09 13:08:45;;;;;;;7.93;6.70;;;;;;;;;;4984432;28;20545;-59
2022/09/09 13:11:31;;;;;;;5.23;4.23;;;;;;;;;;5001470;28;20212;-61
2022/09/09 13:13:58;;;;;;;9.03;5.50;;;;;;;;;;5002392;28;20295;-60
2022/09/09 13:16:31;;;;;;;5.50;4.37;;;;;;;;;;5002488;28;20211;-59
2022/09/09 13:19:06;;;;;;;5.67;4.50;;;;;;;;;;5001283;28;20667;-60
2022/09/09 13:21:34;;;;;;;4.90;4.40;;;;;;;;;;5001726;28;21614;-61
2022/09/09 13:24:03;;;;;;;4.90;4.40;;;;;;;;;;5001268;28;20199;-59
2022/09/09 13:26:29;;;;;;;5.30;4.80;;;;;;;;;;4999518;28;20250;-60
2022/09/09 13:29:07;;;;;;;5.07;4.57;;;;;;;;;;5001439;28;20192;-60
2022/09/09 13:31:36;;;;;;;5.20;4.50;;;;;;;;;;5000819;28;20222;-59
2022/09/09 13:34:13;;;;;;;6.33;5.07;;;;;;;;;;5001352;28;20192;-60
2022/09/09 13:36:41;;;;;;;5.73;4.73;;;;;;;;;;5000684;28;20207;-60
2022/09/09 13:39:15;;;;;;;5.93;4.80;;;;;;;;;;5000517;28;20192;-59
2022/09/09 13:41:44;;;;;;;5.57;4.93;;;;;;;;;;5007435;28;20319;-60
2022/09/09 13:44:27;;;;;;;6.10;5.27;;;;;;;;;;5008331;28;20206;-59
2022/09/09 13:47:16;;;;;;;5.93;5.33;;;;;;;;;;4991262;28;20223;-59
2022/09/09 13:50:17;;;;;;;5.87;5.33;;;;;;;;;;4991721;28;20754;-59
2022/09/09 13:52:45;;;;;;;7.17;5.43;;;;;;;;;;5011213;28;20236;-60
2022/09/09 13:55:12;;;;;;;7.30;5.57;;;;;;;;;;5011430;28;20283;-59
2022/09/09 13:57:39;;;;;;;7.00;6.30;;;;;;;;;;5010918;28;21044;-59
2022/09/09 14:00:08;;;;;;;8.20;6.67;;;;;;;;;;5010271;28;20189;-59
2022/09/09 14:02:35;;;;;;;8.07;6.53;;;;;;;;;;5005372;28;20263;-59
2022/09/09 14:05:03;;;;;;;7.63;6.93;;;;;;;;;;5009725;28;20775;-59
2022/09/09 14:07:30;;;;;;;12.50;10.67;;;;;;;;;;5007236;28;20203;-60
2022/09/09 14:09:56;;;;;;;11.63;8.07;;;;;;;;;;5007294;28;20192;-59
2022/09/09 14:12:23;;;;;;;9.73;8.70;;;;;;;;;;5005744;28;20193;-60
2022/09/09 14:14:50;;;;;;;13.67;9.67;;;;;;;;;;5007177;28;20203;-60
2022/09/09 14:17:17;;;;;;;11.33;9.00;;;;;;;;;;5006510;28;20200;-60
2022/09/09 14:19:45;;;;;;;13.23;10.77;;;;;;;;;;5010325;28;20263;-60
2022/09/09 14:22:13;;;;;;;15.73;11.57;;;;;;;;;;5010434;28;20199;-60
2022/09/09 14:24:43;;;;;;;10.63;8.77;;;;;;;;;;5008752;28;20223;-59
2022/09/09 14:27:10;;;;;;;11.07;9.13;;;;;;;;;;5006581;28;20204;-60
2022/09/09 14:29:37;;;;;;;10.23;8.50;;;;;;;;;;4993077;28;20192;-60
2022/09/09 14:32:04;;;;;;;10.07;8.53;;;;;;;;;;4995972;28;20278;-59
2022/09/09 14:34:38;;;;;;;9.80;8.80;;;;;;;;;;5009198;28;20196;-59
2022/09/09 14:37:05;;;;;;;9.80;8.80;;;;;;;;;;5010174;28;20192;-60
2022/09/09 14:39:32;;;;;;;10.07;8.33;;;;;;;;;;5009950;28;20207;-60
2022/09/09 14:41:59;;;;;;;11.60;9.90;;;;;;;;;;5010177;28;20192;-59
2022/09/09 14:44:25;;;;;;;10.97;9.67;;;;;;;;;;5009611;28;20192;-59
2022/09/09 14:46:53;;;;;;;10.70;9.60;;;;;;;;;;5009885;28;20180;-59
2022/09/09 14:49:20;;;;;;;10.87;9.50;;;;;;;;;;5008738;28;20215;-60
2022/09/09 14:51:47;;;;;;;11.43;9.60;;;;;;;;;;5009604;28;20258;-59
2022/09/09 14:54:15;;;;;;;10.03;9.03;;;;;;;;;;5009415;28;20313;-60
2022/09/09 14:56:41;;;;;;;11.00;9.30;;;;;;;;;;5010245;28;20668;-60
2022/09/09 14:59:09;;;;;;;11.47;8.87;;;;;;;;;;5009785;28;20200;-60
2022/09/09 15:01:36;;;;;;;10.07;8.43;;;;;;;;;;5009335;28;20596;-60
2022/09/09 15:04:03;;;;;;;10.03;8.40;;;;;;;;;;5010085;28;20270;-59
2022/09/09 15:06:32;;;;;;;9.97;8.40;;;;;;;;;;5008803;28;20576;-60
2022/09/09 15:09:00;;;;;;;10.10;8.87;;;;;;;;;;5004958;28;20961;-60
2022/09/09 15:11:27;;;;;;;10.03;8.80;;;;;;;;;;5003798;28;20676;-60
2022/09/09 15:14:13;;;;;;;11.03;8.30;;;;;;;;;;5008867;28;20207;-60
2022/09/09 15:16:40;;;;;;;10.17;8.67;;;;;;;;;;5008706;28;20898;-60
2022/09/09 15:19:09;;;;;;;12.13;9.27;;;;;;;;;;5008522;28;20215;-59
2022/09/09 15:21:36;;;;;;;12.57;9.37;;;;;;;;;;4995113;28;20234;-59
2022/09/09 15:24:03;;;;;;;13.07;10.53;;;;;;;;;;5001406;28;20223;-59
2022/09/09 15:26:30;;;;;;;12.33;10.83;;;;;;;;;;5008351;28;20226;-60
2022/09/09 15:28:59;;;;;;;14.97;11.67;;;;;;;;;;4998669;28;20199;-59
2022/09/09 15:31:28;;;;;;;12.83;11.50;;;;;;;;;;4999304;28;20222;-60
2022/09/09 15:34:01;;;;;;;13.67;11.37;;;;;;;;;;5003685;28;20184;-60
2022/09/09 15:36:31;;;;;;;14.23;11.77;;;;;;;;;;5007982;28;20279;-59
2022/09/09 15:38:59;;;;;;;14.13;11.80;;;;;;;;;;4997724;28;20223;-60
2022/09/09 15:41:26;;;;;;;17.73;12.43;;;;;;;;;;5001172;28;20678;-58
2022/09/09 15:43:56;;;;;;;14.87;12.07;;;;;;;;;;5003685;28;20196;-59
2022/09/09 15:46:31;;;;;;;16.47;13.17;;;;;;;;;;5008093;28;20671;-61
2022/09/09 15:49:06;;;;;;;14.70;11.67;;;;;;;;;;4992329;28;20196;-60
2022/09/09 15:51:33;;;;;;;15.47;12.43;;;;;;;;;;5005788;28;20723;-59
2022/09/09 15:54:11;;;;;;;16.43;12.80;;;;;;;;;;4999599;28;20196;-60
2022/09/09 15:56:40;;;;;;;16.30;12.90;;;;;;;;;;4998780;28;20199;-61
2022/09/09 15:59:08;;;;;;;15.97;12.77;;;;;;;;;;5009861;28;20200;-60
2022/09/09 16:01:35;;;;;;;16.10;13.53;;;;;;;;;;5009302;28;20191;-60
2022/09/09 16:04:03;;;;;;;16.23;13.70;;;;;;;;;;5008517;28;20200;-61
2022/09/09 16:06:30;;;;;;;15.60;13.23;;;;;;;;;;5008896;28;20218;-60
2022/09/09 16:08:57;;;;;;;16.73;13.00;;;;;;;;;;4991178;28;20204;-60
2022/09/09 16:11:26;;;;;;;16.37;12.43;;;;;;;;;;5009125;28;20220;-61
2022/09/09 16:13:53;;;;;;;16.20;13.20;;;;;;;;;;5009655;28;20189;-60
2022/09/09 16:16:24;;;;;;;14.87;12.83;;;;;;;;;;5009553;28;20258;-61
2022/09/09 16:18:52;;;;;;;17.43;13.20;;;;;;;;;;5001172;28;20204;-60
2022/09/09 16:21:20;;;;;;;16.27;12.87;;;;;;;;;;5003339;28;20200;-60
2022/09/09 16:23:49;;;;;;;15.67;12.07;;;;;;;;;;5009813;28;20188;-60
2022/09/09 16:26:16;;;;;;;17.93;12.73;;;;;;;;;;4966237;28;20758;-62
2022/09/09 16:28:48;;;;;;;15.13;13.03;;;;;;;;;;5003735;28;20262;-60
2022/09/09 16:31:17;;;;;;;17.13;13.37;;;;;;;;;;5009045;28;20204;-61
2022/09/09 16:34:03;;;;;;;16.60;13.23;;;;;;;;;;5009763;28;20184;-61
2022/09/09 16:36:33;;;;;;;15.70;13.17;;;;;;;;;;4992272;28;20203;-60
2022/09/09 16:39:01;;;;;;;17.13;13.70;;;;;;;;;;5009449;28;20196;-60
2022/09/09 16:41:30;;;;;;;19.23;13.57;;;;;;;;;;5009106;28;20548;-62
2022/09/09 16:43:58;;;;;;;15.80;14.00;;;;;;;;;;5008543;28;20200;-60
2022/09/09 16:46:25;;;;;;;18.63;15.60;;;;;;;;;;5009549;28;20302;-61
2022/09/09 16:48:52;;;;;;;17.97;14.80;;;;;;;;;;5007333;28;20196;-60
2022/09/09 16:51:19;;;;;;;18.17;13.57;;;;;;;;;;5008364;28;20234;-61
2022/09/09 16:53:46;;;;;;;22.07;14.60;;;;;;;;;;5009551;28;20195;-59
2022/09/09 16:56:36;;;;;;;19.73;15.50;;;;;;;;;;4993983;28;20215;-60
2022/09/09 16:59:08;;;;;;;21.03;15.77;;;;;;;;;;4996368;28;20194;-63
2022/09/09 17:01:40;;;;;;;22.47;17.10;;;;;;;;;;5004499;28;20196;-61
2022/09/09 17:04:25;;;;;;;22.60;17.33;;;;;;;;;;5006599;28;20258;-61
2022/09/09 17:06:52;;;;;;;24.03;17.40;;;;;;;;;;5007878;28;20204;-61
2022/09/09 17:09:20;;;;;;;22.80;17.47;;;;;;;;;;5007838;28;21018;-61
2022/09/09 17:11:47;;;;;;;25.37;18.10;;;;;;;;;;5007782;28;20207;-61
2022/09/09 17:14:15;;;;;;;25.37;18.13;;;;;;;;;;5008339;28;20231;-61
2022/09/09 17:16:41;;;;;;;30.50;21.07;;;;;;;;;;5008683;28;20189;-61
2022/09/09 17:19:08;;;;;;;25.43;18.93;;;;;;;;;;5008754;28;20199;-61
2022/09/09 17:21:35;;;;;;;32.83;17.93;;;;;;;;;;5008864;28;20679;-61
2022/09/09 17:24:21;;;;;;;28.43;18.67;;;;;;;;;;4993492;28;20197;-61
2022/09/09 17:26:48;;;;;;;33.17;19.60;;;;;;;;;;4982083;28;20196;-61
2022/09/09 17:29:16;;;;;;;30.47;18.97;;;;;;;;;;5012461;28;20194;-62
2022/09/09 17:31:43;;;;;;;30.87;20.80;;;;;;;;;;5011515;28;20215;-62
2022/09/09 17:34:10;;;;;;;39.90;21.97;;;;;;;;;;5012486;28;20671;-61
2022/09/09 17:36:37;;;;;;;39.67;23.27;;;;;;;;;;5011402;28;20284;-61
2022/09/09 17:39:04;;;;;;;38.97;23.47;;;;;;;;;;5011067;28;20188;-61
2022/09/09 17:41:31;;;;;;;32.37;23.73;;;;;;;;;;5011692;28;20254;-61
2022/09/09 17:43:58;;;;;;;39.43;23.87;;;;;;;;;;5011900;28;20204;-61
2022/09/09 17:46:33;;;;;;;38.43;24.23;;;;;;;;;;5011836;28;20657;-61
2022/09/09 17:49:02;;;;;;;48.90;25.33;;;;;;;;;;5012272;28;20842;-61
2022/09/09 17:51:29;;;;;;;48.50;25.70;;;;;;;;;;5011185;28;20227;-61
2022/09/09 17:54:00;;;;;;;40.57;24.40;;;;;;;;;;5011416;28;20192;-61
2022/09/09 17:56:30;;;;;;;45.30;24.83;;;;;;;;;;5011239;28;20199;-61
2022/09/09 17:58:58;;;;;;;44.63;23.20;;;;;;;;;;5011423;28;20541;-61
2022/09/09 18:01:26;;;;;;;47.30;25.30;;;;;;;;;;5011203;28;20247;-60
2022/09/09 18:03:54;;;;;;;48.27;24.83;;;;;;;;;;5012078;28;20200;-60
2022/09/09 18:06:22;;;;;;;38.83;24.80;;;;;;;;;;5007147;28;20191;-59
2022/09/09 18:08:50;;;;;;;38.50;24.27;;;;;;;;;;5012004;28;20366;-59
2022/09/09 18:11:18;;;;;;;45.60;23.27;;;;;;;;;;4993119;28;20707;-59
2022/09/09 18:13:52;;;;;;;50.00;22.80;;;;;;;;;;5010553;28;20211;-59
2022/09/09 18:16:19;;;;;;;50.60;24.10;;;;;;;;;;5011170;28;20215;-60
2022/09/09 18:18:46;;;;;;;36.33;23.80;;;;;;;;;;4999842;28;20224;-59
2022/09/09 18:21:13;;;;;;;74.73;25.27;;;;;;;;;;5003198;28;20206;-60
2022/09/09 18:23:41;;;;;;;51.63;23.93;;;;;;;;;;5002612;28;20781;-62
2022/09/09 18:26:09;;;;;;;98.03;25.20;;;;;;;;;;5000888;28;20283;-61
2022/09/09 18:28:36;;;;;;;52.40;24.53;;;;;;;;;;5003956;28;20188;-61
2022/09/09 18:31:05;;;;;;;40.77;22.73;;;;;;;;;;5002721;28;20220;-59
2022/09/09 18:33:35;;;;;;;74.10;24.00;;;;;;;;;;5009769;28;20603;-61
2022/09/09 18:36:06;;;;;;;38.97;26.27;;;;;;;;;;5011033;28;20227;-59
2022/09/09 18:38:34;;;;;;;36.33;23.10;;;;;;;;;;5011089;28;20199;-59
2022/09/09 18:41:02;;;;;;;31.83;23.00;;;;;;;;;;5010702;28;20188;-59
2022/09/09 18:43:29;;;;;;;72.47;23.43;;;;;;;;;;5008992;28;20250;-60
2022/09/09 18:46:02;;;;;;;62.67;23.87;;;;;;;;;;5010576;28;20643;-60
2022/09/09 18:48:29;;;;;;;43.13;23.27;;;;;;;;;;5011170;28;20298;-60
2022/09/09 18:50:56;;;;;;;38.37;25.20;;;;;;;;;;5010044;28;20192;-59
2022/09/09 18:53:23;;;;;;;65.90;25.87;;;;;;;;;;4993411;28;20227;-59
2022/09/09 18:55:56;;;;;;;36.23;24.20;;;;;;;;;;5009380;28;20680;-59
2022/09/09 18:58:23;;;;;;;33.13;23.97;;;;;;;;;;5009038;28;20208;-59
2022/09/09 19:00:52;;;;;;;48.00;24.97;;;;;;;;;;5011450;28;20192;-59
2022/09/09 19:03:21;;;;;;;49.20;26.23;;;;;;;;;;4998084;28;20224;-59
2022/09/09 19:05:50;;;;;;;41.53;25.90;;;;;;;;;;5010352;28;20188;-59
2022/09/09 19:08:19;;;;;;;39.63;26.30;;;;;;;;;;5009831;28;20211;-60
2022/09/09 19:10:46;;;;;;;34.00;25.57;;;;;;;;;;4993091;28;20232;-59
2022/09/09 19:13:14;;;;;;;35.87;25.60;;;;;;;;;;5010682;28;20222;-59
2022/09/09 19:15:41;;;;;;;42.80;26.37;;;;;;;;;;5010504;28;20192;-61
2022/09/09 19:18:08;;;;;;;40.93;27.50;;;;;;;;;;4992465;28;20192;-59
2022/09/09 19:20:34;;;;;;;39.90;26.83;;;;;;;;;;5010341;28;20254;-59
2022/09/09 19:23:01;;;;;;;38.30;27.33;;;;;;;;;;5009996;28;20196;-59
2022/09/09 19:25:28;;;;;;;36.27;27.23;;;;;;;;;;5010137;28;20712;-59
2022/09/09 19:27:55;;;;;;;39.90;26.73;;;;;;;;;;5010640;28;20608;-59
2022/09/09 19:30:21;;;;;;;33.30;25.43;;;;;;;;;;5009812;28;20188;-59
2022/09/09 19:32:48;;;;;;;40.00;26.73;;;;;;;;;;5010033;28;20216;-59
2022/09/09 19:35:19;;;;;;;36.00;26.23;;;;;;;;;;5008793;28;20266;-59
2022/09/09 19:37:46;;;;;;;35.87;26.33;;;;;;;;;;5009466;28;20189;-59
2022/09/09 19:40:13;;;;;;;36.07;25.27;;;;;;;;;;5010935;28;20204;-60
2022/09/09 19:42:41;;;;;;;36.00;26.17;;;;;;;;;;5009125;28;20181;-60
2022/09/09 19:45:09;;;;;;;36.20;26.77;;;;;;;;;;4999655;28;20228;-62
2022/09/09 19:47:36;;;;;;;33.07;24.73;;;;;;;;;;5005495;28;20509;-59
2022/09/09 19:50:04;;;;;;;33.43;25.03;;;;;;;;;;5009852;28;20215;-60
2022/09/09 19:52:33;;;;;;;34.40;25.33;;;;;;;;;;5006342;28;20730;-60
2022/09/09 19:55:00;;;;;;;32.33;24.10;;;;;;;;;;5009701;28;20196;-60
2022/09/09 19:57:29;;;;;;;34.27;25.20;;;;;;;;;;5006096;28;20196;-60
2022/09/09 19:59:56;;;;;;;35.63;25.83;;;;;;;;;;5009635;28;20216;-59
2022/09/09 20:02:24;;;;;;;37.43;26.47;;;;;;;;;;5008102;28;20222;-59
2022/09/09 20:04:50;;;;;;;31.47;24.50;;;;;;;;;;5009681;28;20283;-59
2022/09/09 20:07:18;;;;;;;33.83;24.63;;;;;;;;;;5008562;28;20199;-60
2022/09/09 20:09:44;;;;;;;39.60;28.07;;;;;;;;;;5008640;28;20196;-61
2022/09/09 20:12:11;;;;;;;38.27;28.23;;;;;;;;;;4996478;28;20691;-61
2022/09/09 20:14:38;;;;;;;35.43;25.97;;;;;;;;;;4992189;28;20246;-61
2022/09/09 20:17:06;;;;;;;36.40;25.33;;;;;;;;;;5004497;28;20204;-61
2022/09/09 20:19:33;;;;;;;35.30;24.87;;;;;;;;;;5008481;28;20203;-61
2022/09/09 20:22:00;;;;;;;32.80;24.70;;;;;;;;;;5008748;28;20196;-61
2022/09/09 20:24:27;;;;;;;35.37;25.27;;;;;;;;;;5007540;28;20200;-62
2022/09/09 20:26:55;;;;;;;37.73;28.47;;;;;;;;;;5008366;28;20203;-60
2022/09/09 20:29:22;;;;;;;37.60;27.30;;;;;;;;;;5008387;28;20242;-60
2022/09/09 20:31:48;;;;;;;35.20;25.73;;;;;;;;;;5009464;28;20203;-60
2022/09/09 20:34:18;;;;;;;36.27;24.77;;;;;;;;;;5008141;28;20196;-61
2022/09/09 20:36:45;;;;;;;35.57;24.03;;;;;;;;;;5009087;28;20227;-61
2022/09/09 20:39:13;;;;;;;35.87;24.70;;;;;;;;;;5008518;28;20194;-61
2022/09/09 20:41:43;;;;;;;34.27;23.90;;;;;;;;;;5008707;28;20580;-60
2022/09/09 20:44:14;;;;;;;33.40;24.30;;;;;;;;;;5007520;28;20591;-61
2022/09/09 20:46:42;;;;;;;35.30;25.17;;;;;;;;;;5008961;28;20192;-60
2022/09/09 20:49:10;;;;;;;32.83;25.70;;;;;;;;;;5008817;28;20196;-60
2022/09/09 20:51:37;;;;;;;32.30;24.33;;;;;;;;;;5008386;28;20238;-61
2022/09/09 20:54:04;;;;;;;33.70;24.33;;;;;;;;;;5006566;28;20196;-63
2022/09/09 20:56:32;;;;;;;31.70;24.37;;;;;;;;;;5007863;28;20199;-61
2022/09/09 20:58:59;;;;;;;33.07;24.67;;;;;;;;;;5008539;28;20196;-61
2022/09/09 21:01:27;;;;;;;29.30;23.50;;;;;;;;;;4991125;28;20200;-61
2022/09/09 21:03:54;;;;;;;29.50;24.93;;;;;;;;;;4999756;28;20219;-60
2022/09/09 21:06:21;;;;;;;33.87;25.27;;;;;;;;;;4990555;28;20196;-60
2022/09/09 21:08:48;;;;;;;33.97;24.93;;;;;;;;;;5008269;28;20235;-61
2022/09/09 21:11:16;;;;;;;32.73;24.73;;;;;;;;;;5009305;28;20224;-61
2022/09/09 21:13:42;;;;;;;31.33;24.07;;;;;;;;;;5007979;28;20730;-61
2022/09/09 21:16:11;;;;;;;32.60;25.70;;;;;;;;;;5008936;28;20188;-61
2022/09/09 21:18:39;;;;;;;32.83;25.40;;;;;;;;;;4990750;28;20220;-62
2022/09/09 21:21:06;;;;;;;34.33;24.67;;;;;;;;;;5008505;28;20628;-61
2022/09/09 21:23:34;;;;;;;31.77;25.13;;;;;;;;;;5007618;28;20219;-60
2022/09/09 21:26:01;;;;;;;32.90;25.00;;;;;;;;;;5008453;28;20196;-61
2022/09/09 21:28:28;;;;;;;32.40;24.13;;;;;;;;;;5008251;28;20196;-61
2022/09/09 21:30:54;;;;;;;31.23;24.13;;;;;;;;;;5008812;28;20251;-60
2022/09/09 21:33:22;;;;;;;32.83;25.03;;;;;;;;;;5008105;28;20231;-61
2022/09/09 21:35:49;;;;;;;39.17;26.80;;;;;;;;;;5008040;28;20200;-60
2022/09/09 21:38:16;;;;;;;35.43;26.20;;;;;;;;;;5007223;28;20196;-61
2022/09/09 21:40:47;;;;;;;37.10;27.33;;;;;;;;;;5007214;28;20262;-60
2022/09/09 21:43:13;;;;;;;35.03;27.23;;;;;;;;;;5008675;28;20204;-60
2022/09/09 21:45:40;;;;;;;36.87;28.53;;;;;;;;;;4990378;28;20545;-60
2022/09/09 21:48:07;;;;;;;35.23;26.63;;;;;;;;;;5006887;28;20404;-61
2022/09/09 21:50:35;;;;;;;35.87;26.73;;;;;;;;;;4991155;28;20199;-61
2022/09/09 21:53:02;;;;;;;37.47;25.60;;;;;;;;;;5007608;28;20320;-60
2022/09/09 21:55:31;;;;;;;38.53;28.03;;;;;;;;;;5008405;28;20602;-60
2022/09/09 21:57:59;;;;;;;37.03;27.73;;;;;;;;;;5006858;28;20197;-61
2022/09/09 22:00:25;;;;;;;40.17;26.97;;;;;;;;;;5007949;28;20642;-60
2022/09/09 22:02:52;;;;;;;36.53;28.20;;;;;;;;;;5008618;28;20544;-60
2022/09/09 22:05:19;;;;;;;42.57;28.40;;;;;;;;;;4987198;28;20196;-60
2022/09/09 22:07:45;;;;;;;36.80;27.13;;;;;;;;;;5009151;28;20196;-60
2022/09/09 22:10:12;;;;;;;38.83;27.40;;;;;;;;;;5011807;28;20246;-60
2022/09/09 22:12:39;;;;;;;37.03;26.60;;;;;;;;;;5011445;28;20212;-60
2022/09/09 22:15:08;;;;;;;32.03;24.67;;;;;;;;;;5010425;28;20192;-61
2022/09/09 22:17:37;;;;;;;35.37;26.03;;;;;;;;;;5011739;28;20193;-60
2022/09/09 22:20:05;;;;;;;34.33;25.50;;;;;;;;;;5011164;28;20195;-60
2022/09/09 22:22:33;;;;;;;37.73;25.97;;;;;;;;;;5011168;28;20188;-60
2022/09/09 22:25:00;;;;;;;32.57;24.40;;;;;;;;;;5011464;28;20204;-61
2022/09/09 22:27:26;;;;;;;38.20;25.57;;;;;;;;;;4993429;28;20218;-61
2022/09/09 22:29:53;;;;;;;34.27;25.13;;;;;;;;;;5011300;28;20726;-61
2022/09/09 22:32:20;;;;;;;31.13;22.90;;;;;;;;;;5011039;28;20207;-60
2022/09/09 22:34:46;;;;;;;31.50;24.27;;;;;;;;;;5010866;28;20192;-60
2022/09/09 22:37:13;;;;;;;34.80;23.37;;;;;;;;;;5011276;28;20254;-60
2022/09/09 22:39:40;;;;;;;29.27;22.80;;;;;;;;;;5010987;28;20224;-60
2022/09/09 22:42:07;;;;;;;32.43;22.67;;;;;;;;;;5014733;28;20266;-61
2022/09/09 22:44:33;;;;;;;30.53;22.03;;;;;;;;;;5011018;28;20247;-60
2022/09/09 22:47:00;;;;;;;32.23;23.07;;;;;;;;;;5010198;28;20196;-60
2022/09/09 22:49:27;;;;;;;36.07;22.37;;;;;;;;;;5010860;28;20199;-60
2022/09/09 22:51:54;;;;;;;31.07;21.60;;;;;;;;;;4993147;28;20227;-60
2022/09/09 22:54:22;;;;;;;31.27;20.43;;;;;;;;;;5010152;28;20212;-60
2022/09/09 22:56:49;;;;;;;30.97;21.33;;;;;;;;;;5010370;28;20192;-60
2022/09/09 22:59:16;;;;;;;27.97;19.60;;;;;;;;;;5010319;28;20251;-60
2022/09/09 23:01:43;;;;;;;26.63;19.50;;;;;;;;;;5010667;28;20231;-60
2022/09/09 23:04:11;;;;;;;27.97;19.50;;;;;;;;;;5009877;28;20196;-61
2022/09/09 23:06:40;;;;;;;30.17;20.63;;;;;;;;;;5009769;28;20250;-61
2022/09/09 23:09:07;;;;;;;29.07;19.93;;;;;;;;;;5011013;28;20187;-61
2022/09/09 23:11:34;;;;;;;29.27;19.27;;;;;;;;;;5010299;28;20197;-60
2022/09/09 23:14:02;;;;;;;29.47;19.53;;;;;;;;;;4992666;28;20688;-60
2022/09/09 23:16:31;;;;;;;27.97;19.63;;;;;;;;;;5010459;28;20192;-60
2022/09/09 23:18:59;;;;;;;28.07;19.73;;;;;;;;;;5009256;28;20242;-60
2022/09/09 23:21:27;;;;;;;28.67;19.57;;;;;;;;;;5010287;28;20559;-60
2022/09/09 23:23:55;;;;;;;27.37;19.07;;;;;;;;;;5010374;28;20878;-60
2022/09/09 23:26:22;;;;;;;28.53;19.13;;;;;;;;;;5010159;28;20196;-60
2022/09/09 23:28:50;;;;;;;28.43;19.70;;;;;;;;;;5010188;28;20184;-61
2022/09/09 23:31:18;;;;;;;29.37;18.97;;;;;;;;;;5010279;28;20196;-60
2022/09/09 23:33:45;;;;;;;28.80;19.80;;;;;;;;;;5010353;28;20212;-62